sensor_id;sensor_type;location;lat;lon;timestamp;temperature;humidity
61912;DHT22;49973;52.084;5.412;2023-02-15T00:00:24;1.00;99.90
61912;DHT22;49973;52.084;5.412;2023-02-15T00:02:53;0.90;99.90
61912;DHT22;49973;52.084;5.412;2023-02-15T00:05:21;0.90;99.90
61912;DHT22;49973;52.084;5.412;2023-02-15T00:07:50;0.90;99.90
61912;DHT22;49973;52.084;5.412;2023-02-15T00:10:18;0.90;99.90
61912;DHT22;49973;52.084;5.412;2023-02-15T00:12:47;0.90;99.90
61912;DHT22;49973;52.084;5.412;2023-02-15T00:15:16;0.90;99.90
61912;DHT22;49973;52.084;5.412;2023-02-15T00:17:45;0.80;99.90
61912;DHT22;49973;52.084;5.412;2023-02-15T00:20:13;0.90;99.90
61912;DHT22;49973;52.084;5.412;2023-02-15T00:22:42;0.80;99.90
61912;DHT22;49973;52.084;5.412;2023-02-15T00:25:10;0.80;99.90
61912;DHT22;49973;52.084;5.412;2023-02-15T00:27:39;0.80;99.90
61912;DHT22;49973;52.084;5.412;2023-02-15T00:30:08;0.80;99.90
61912;DHT22;49973;52.084;5.412;2023-02-15T00:32:38;0.80;99.90
61912;DHT22;49973;52.084;5.412;2023-02-15T00:35:07;0.80;99.90
61912;DHT22;49973;52.084;5.412;2023-02-15T00:37:36;0.80;99.90
61912;DHT22;49973;52.084;5.412;2023-02-15T00:40:06;0.80;99.90
61912;DHT22;49973;52.084;5.412;2023-02-15T00:42:34;0.80;99.90
61912;DHT22;49973;52.084;5.412;2023-02-15T00:45:03;0.80;99.90
61912;DHT22;49973;52.084;5.412;2023-02-15T00:47:32;0.80;99.90
61912;DHT22;49973;52.084;5.412;2023-02-15T00:50:02;0.80;99.90
61912;DHT22;49973;52.084;5.412;2023-02-15T00:52:31;0.80;99.90
61912;DHT22;49973;52.084;5.412;2023-02-15T00:54:59;0.80;99.90
61912;DHT22;49973;52.084;5.412;2023-02-15T00:57:28;0.70;99.90
61912;DHT22;49973;52.084;5.412;2023-02-15T00:59:56;0.70;99.90
61912;DHT22;49973;52.084;5.412;2023-02-15T01:02:25;0.60;99.90
61912;DHT22;49973;52.084;5.412;2023-02-15T01:04:53;0.60;99.90
61912;DHT22;49973;52.084;5.412;2023-02-15T01:07:23;0.60;99.90
61912;DHT22;49973;52.084;5.412;2023-02-15T01:09:52;0.50;99.90
61912;DHT22;49973;52.084;5.412;2023-02-15T01:12:21;0.50;99.90
61912;DHT22;49973;52.084;5.412;2023-02-15T01:14:49;0.50;99.90
61912;DHT22;49973;52.084;5.412;2023-02-15T01:17:19;0.50;99.90
61912;DHT22;49973;52.084;5.412;2023-02-15T01:19:47;0.50;99.90
61912;DHT22;49973;52.084;5.412;2023-02-15T01:22:16;0.50;99.90
61912;DHT22;49973;52.084;5.412;2023-02-15T01:24:48;0.60;99.90
61912;DHT22;49973;52.084;5.412;2023-02-15T01:27:17;0.50;99.90
61912;DHT22;49973;52.084;5.412;2023-02-15T01:29:46;0.40;99.90
61912;DHT22;49973;52.084;5.412;2023-02-15T01:32:15;0.40;99.90
61912;DHT22;49973;52.084;5.412;2023-02-15T01:34:44;0.40;99.90
61912;DHT22;49973;52.084;5.412;2023-02-15T01:37:13;0.40;99.90
61912;DHT22;49973;52.084;5.412;2023-02-15T01:39:41;0.40;99.90
61912;DHT22;49973;52.084;5.412;2023-02-15T01:42:12;0.30;99.90
61912;DHT22;49973;52.084;5.412;2023-02-15T01:44:47;0.30;99.90
61912;DHT22;49973;52.084;5.412;2023-02-15T01:47:19;0.30;99.90
61912;DHT22;49973;52.084;5.412;2023-02-15T01:50:02;0.30;99.90
61912;DHT22;49973;52.084;5.412;2023-02-15T01:52:33;0.30;99.90
61912;DHT22;49973;52.084;5.412;2023-02-15T01:55:04;0.20;99.90
61912;DHT22;49973;52.084;5.412;2023-02-15T01:57:36;0.20;99.90
61912;DHT22;49973;52.084;5.412;2023-02-15T02:00:06;0.20;99.90
61912;DHT22;49973;52.084;5.412;2023-02-15T02:02:39;0.20;99.90
61912;DHT22;49973;52.084;5.412;2023-02-15T02:05:08;0.20;99.90
61912;DHT22;49973;52.084;5.412;2023-02-15T02:07:39;0.20;99.90
61912;DHT22;49973;52.084;5.412;2023-02-15T02:10:12;0.20;99.90
61912;DHT22;49973;52.084;5.412;2023-02-15T02:12:44;0.20;99.90
61912;DHT22;49973;52.084;5.412;2023-02-15T02:15:14;0.20;99.90
61912;DHT22;49973;52.084;5.412;2023-02-15T02:17:53;0.20;99.90
61912;DHT22;49973;52.084;5.412;2023-02-15T02:20:31;0.10;99.90
61912;DHT22;49973;52.084;5.412;2023-02-15T02:23:23;0.10;99.90
61912;DHT22;49973;52.084;5.412;2023-02-15T02:29:43;0.10;99.90
61912;DHT22;49973;52.084;5.412;2023-02-15T02:35:28;0.10;99.90
61912;DHT22;49973;52.084;5.412;2023-02-15T02:38:04;0.00;99.90
61912;DHT22;49973;52.084;5.412;2023-02-15T02:40:46;0.00;99.90
61912;DHT22;49973;52.084;5.412;2023-02-15T02:43:21;0.00;99.90
61912;DHT22;49973;52.084;5.412;2023-02-15T02:45:54;0.00;99.90
61912;DHT22;49973;52.084;5.412;2023-02-15T02:48:29;0.10;99.90
61912;DHT22;49973;52.084;5.412;2023-02-15T02:51:00;0.00;99.90
61912;DHT22;49973;52.084;5.412;2023-02-15T02:53:30;0.00;99.90
61912;DHT22;49973;52.084;5.412;2023-02-15T02:56:03;0.00;99.90
61912;DHT22;49973;52.084;5.412;2023-02-15T02:58:37;0.00;99.90
61912;DHT22;49973;52.084;5.412;2023-02-15T03:01:10;0.00;99.90
61912;DHT22;49973;52.084;5.412;2023-02-15T03:03:44;-0.10;99.90
61912;DHT22;49973;52.084;5.412;2023-02-15T03:06:19;-0.10;99.90
61912;DHT22;49973;52.084;5.412;2023-02-15T03:08:50;-0.10;99.90
61912;DHT22;49973;52.084;5.412;2023-02-15T03:11:20;-0.10;99.90
61912;DHT22;49973;52.084;5.412;2023-02-15T03:13:50;-0.10;99.90
61912;DHT22;49973;52.084;5.412;2023-02-15T03:16:20;-0.10;99.90
61912;DHT22;49973;52.084;5.412;2023-02-15T03:18:58;-0.10;99.90
61912;DHT22;49973;52.084;5.412;2023-02-15T03:21:35;-0.10;99.90
61912;DHT22;49973;52.084;5.412;2023-02-15T03:24:09;-0.10;99.90
61912;DHT22;49973;52.084;5.412;2023-02-15T03:26:39;-0.10;99.90
61912;DHT22;49973;52.084;5.412;2023-02-15T03:29:10;-0.10;99.90
61912;DHT22;49973;52.084;5.412;2023-02-15T03:31:41;-0.10;99.90
61912;DHT22;49973;52.084;5.412;2023-02-15T03:34:13;-0.10;99.90
61912;DHT22;49973;52.084;5.412;2023-02-15T03:36:48;-0.10;99.90
61912;DHT22;49973;52.084;5.412;2023-02-15T03:39:24;-0.20;99.90
61912;DHT22;49973;52.084;5.412;2023-02-15T03:42:01;-0.20;99.90
61912;DHT22;49973;52.084;5.412;2023-02-15T03:44:39;-0.20;99.90
61912;DHT22;49973;52.084;5.412;2023-02-15T03:47:13;-0.20;99.90
61912;DHT22;49973;52.084;5.412;2023-02-15T03:49:47;-0.20;99.90
61912;DHT22;49973;52.084;5.412;2023-02-15T03:52:19;-0.20;99.90
61912;DHT22;49973;52.084;5.412;2023-02-15T03:54:48;-0.30;99.90
61912;DHT22;49973;52.084;5.412;2023-02-15T03:57:19;-0.30;99.90
61912;DHT22;49973;52.084;5.412;2023-02-15T04:00:12;-0.30;99.90
61912;DHT22;49973;52.084;5.412;2023-02-15T04:03:11;-0.30;99.90
61912;DHT22;49973;52.084;5.412;2023-02-15T04:05:42;-0.30;99.90
61912;DHT22;49973;52.084;5.412;2023-02-15T04:08:12;-0.40;99.90
61912;DHT22;49973;52.084;5.412;2023-02-15T04:10:41;-0.40;99.90
61912;DHT22;49973;52.084;5.412;2023-02-15T04:13:29;-0.40;99.90
61912;DHT22;49973;52.084;5.412;2023-02-15T04:15:57;-0.40;99.90
61912;DHT22;49973;52.084;5.412;2023-02-15T04:18:36;-0.40;99.90
61912;DHT22;49973;52.084;5.412;2023-02-15T04:21:24;-0.40;99.90
61912;DHT22;49973;52.084;5.412;2023-02-15T04:24:13;-0.40;99.90
61912;DHT22;49973;52.084;5.412;2023-02-15T04:27:00;-0.40;99.90
61912;DHT22;49973;52.084;5.412;2023-02-15T04:29:29;-0.40;99.90
61912;DHT22;49973;52.084;5.412;2023-02-15T04:32:00;-0.40;99.90
61912;DHT22;49973;52.084;5.412;2023-02-15T04:34:28;-0.40;99.90
61912;DHT22;49973;52.084;5.412;2023-02-15T04:36:57;-0.40;99.90
61912;DHT22;49973;52.084;5.412;2023-02-15T04:39:27;-0.40;99.90
61912;DHT22;49973;52.084;5.412;2023-02-15T04:41:55;-0.40;99.90
61912;DHT22;49973;52.084;5.412;2023-02-15T04:44:24;-0.40;99.90
61912;DHT22;49973;52.084;5.412;2023-02-15T04:46:52;-0.40;99.90
61912;DHT22;49973;52.084;5.412;2023-02-15T04:49:21;-0.40;99.90
61912;DHT22;49973;52.084;5.412;2023-02-15T04:51:50;-0.40;99.90
61912;DHT22;49973;52.084;5.412;2023-02-15T04:54:18;-0.40;99.90
61912;DHT22;49973;52.084;5.412;2023-02-15T04:56:48;-0.40;99.90
61912;DHT22;49973;52.084;5.412;2023-02-15T04:59:17;-0.40;99.90
61912;DHT22;49973;52.084;5.412;2023-02-15T05:01:45;-0.40;99.90
61912;DHT22;49973;52.084;5.412;2023-02-15T05:04:14;-0.40;99.90
61912;DHT22;49973;52.084;5.412;2023-02-15T05:06:42;-0.40;99.90
61912;DHT22;49973;52.084;5.412;2023-02-15T05:09:11;-0.30;99.90
61912;DHT22;49973;52.084;5.412;2023-02-15T05:11:40;-0.30;99.90
61912;DHT22;49973;52.084;5.412;2023-02-15T05:14:10;-0.30;99.90
61912;DHT22;49973;52.084;5.412;2023-02-15T05:16:38;-0.30;99.90
61912;DHT22;49973;52.084;5.412;2023-02-15T05:19:07;-0.30;99.90
61912;DHT22;49973;52.084;5.412;2023-02-15T05:21:36;-0.30;99.90
61912;DHT22;49973;52.084;5.412;2023-02-15T05:24:05;-0.30;99.90
61912;DHT22;49973;52.084;5.412;2023-02-15T05:26:54;-0.30;99.90
61912;DHT22;49973;52.084;5.412;2023-02-15T05:29:41;-0.30;99.90
61912;DHT22;49973;52.084;5.412;2023-02-15T05:32:12;-0.40;99.90
61912;DHT22;49973;52.084;5.412;2023-02-15T05:34:41;-0.40;99.90
61912;DHT22;49973;52.084;5.412;2023-02-15T05:37:09;-0.40;99.90
61912;DHT22;49973;52.084;5.412;2023-02-15T05:39:38;-0.40;99.90
61912;DHT22;49973;52.084;5.412;2023-02-15T05:42:06;-0.40;99.90
61912;DHT22;49973;52.084;5.412;2023-02-15T05:44:35;-0.40;99.90
61912;DHT22;49973;52.084;5.412;2023-02-15T05:47:05;-0.40;99.90
61912;DHT22;49973;52.084;5.412;2023-02-15T05:49:34;-0.40;99.90
61912;DHT22;49973;52.084;5.412;2023-02-15T05:52:03;-0.40;99.90
61912;DHT22;49973;52.084;5.412;2023-02-15T05:54:32;-0.40;99.90
61912;DHT22;49973;52.084;5.412;2023-02-15T05:57:00;-0.40;99.90
61912;DHT22;49973;52.084;5.412;2023-02-15T05:59:29;-0.40;99.90
61912;DHT22;49973;52.084;5.412;2023-02-15T06:01:57;-0.40;99.90
61912;DHT22;49973;52.084;5.412;2023-02-15T06:04:27;-0.40;99.90
61912;DHT22;49973;52.084;5.412;2023-02-15T06:06:56;-0.40;99.90
61912;DHT22;49973;52.084;5.412;2023-02-15T06:09:24;-0.40;99.90
61912;DHT22;49973;52.084;5.412;2023-02-15T06:11:53;-0.40;99.90
61912;DHT22;49973;52.084;5.412;2023-02-15T06:14:21;-0.40;99.90
61912;DHT22;49973;52.084;5.412;2023-02-15T06:16:50;-0.40;99.90
61912;DHT22;49973;52.084;5.412;2023-02-15T06:19:18;-0.40;99.90
61912;DHT22;49973;52.084;5.412;2023-02-15T06:21:49;-0.40;99.90
61912;DHT22;49973;52.084;5.412;2023-02-15T06:24:17;-0.40;99.90
61912;DHT22;49973;52.084;5.412;2023-02-15T06:26:46;-0.40;99.90
61912;DHT22;49973;52.084;5.412;2023-02-15T06:29:15;-0.40;99.90
61912;DHT22;49973;52.084;5.412;2023-02-15T06:31:43;-0.40;99.90
61912;DHT22;49973;52.084;5.412;2023-02-15T06:34:12;-0.40;99.90
61912;DHT22;49973;52.084;5.412;2023-02-15T06:36:41;-0.40;99.90
61912;DHT22;49973;52.084;5.412;2023-02-15T06:39:10;-0.40;99.90
61912;DHT22;49973;52.084;5.412;2023-02-15T06:41:39;-0.40;99.90
61912;DHT22;49973;52.084;5.412;2023-02-15T06:44:08;-0.40;99.90
61912;DHT22;49973;52.084;5.412;2023-02-15T06:46:36;-0.40;99.90
61912;DHT22;49973;52.084;5.412;2023-02-15T06:49:04;-0.40;99.90
61912;DHT22;49973;52.084;5.412;2023-02-15T06:51:33;-0.30;99.90
61912;DHT22;49973;52.084;5.412;2023-02-15T06:54:02;-0.30;99.90
61912;DHT22;49973;52.084;5.412;2023-02-15T06:56:32;-0.30;99.90
61912;DHT22;49973;52.084;5.412;2023-02-15T06:59:00;-0.30;99.90
61912;DHT22;49973;52.084;5.412;2023-02-15T07:01:29;-0.20;99.90
61912;DHT22;49973;52.084;5.412;2023-02-15T07:03:57;-0.20;99.90
61912;DHT22;49973;52.084;5.412;2023-02-15T07:06:26;-0.20;99.90
61912;DHT22;49973;52.084;5.412;2023-02-15T07:08:58;-0.10;99.90
61912;DHT22;49973;52.084;5.412;2023-02-15T07:11:27;-0.20;99.90
61912;DHT22;49973;52.084;5.412;2023-02-15T07:14:15;-0.10;99.90
61912;DHT22;49973;52.084;5.412;2023-02-15T07:16:43;-0.10;99.90
61912;DHT22;49973;52.084;5.412;2023-02-15T07:19:12;0.00;99.90
61912;DHT22;49973;52.084;5.412;2023-02-15T07:21:40;0.00;99.90
61912;DHT22;49973;52.084;5.412;2023-02-15T07:24:09;0.10;99.90
61912;DHT22;49973;52.084;5.412;2023-02-15T07:26:37;0.10;99.90
61912;DHT22;49973;52.084;5.412;2023-02-15T07:29:06;0.20;99.90
61912;DHT22;49973;52.084;5.412;2023-02-15T07:31:35;0.30;99.90
61912;DHT22;49973;52.084;5.412;2023-02-15T07:34:05;0.40;99.90
61912;DHT22;49973;52.084;5.412;2023-02-15T07:36:34;0.40;99.90
61912;DHT22;49973;52.084;5.412;2023-02-15T07:39:02;0.50;99.90
61912;DHT22;49973;52.084;5.412;2023-02-15T07:41:31;0.60;99.90
61912;DHT22;49973;52.084;5.412;2023-02-15T07:43:59;0.70;99.90
61912;DHT22;49973;52.084;5.412;2023-02-15T07:46:28;0.70;99.90
61912;DHT22;49973;52.084;5.412;2023-02-15T07:48:58;0.80;99.90
61912;DHT22;49973;52.084;5.412;2023-02-15T07:51:27;0.90;99.90
61912;DHT22;49973;52.084;5.412;2023-02-15T07:53:55;1.10;99.90
61912;DHT22;49973;52.084;5.412;2023-02-15T07:56:24;1.20;99.90
61912;DHT22;49973;52.084;5.412;2023-02-15T07:58:53;1.40;99.90
61912;DHT22;49973;52.084;5.412;2023-02-15T08:01:24;1.60;99.90
61912;DHT22;49973;52.084;5.412;2023-02-15T08:03:53;1.90;99.90
61912;DHT22;49973;52.084;5.412;2023-02-15T08:06:26;2.10;99.90
61912;DHT22;49973;52.084;5.412;2023-02-15T08:08:55;2.40;99.90
61912;DHT22;49973;52.084;5.412;2023-02-15T08:11:25;2.60;99.90
61912;DHT22;49973;52.084;5.412;2023-02-15T08:13:57;2.80;99.90
61912;DHT22;49973;52.084;5.412;2023-02-15T08:16:29;2.90;99.90
61912;DHT22;49973;52.084;5.412;2023-02-15T08:19:00;3.00;99.90
61912;DHT22;49973;52.084;5.412;2023-02-15T08:21:32;3.10;99.90
61912;DHT22;49973;52.084;5.412;2023-02-15T08:24:00;3.20;99.90
61912;DHT22;49973;52.084;5.412;2023-02-15T08:26:30;3.20;99.90
61912;DHT22;49973;52.084;5.412;2023-02-15T08:28:59;3.20;99.90
61912;DHT22;49973;52.084;5.412;2023-02-15T08:31:29;3.30;99.90
61912;DHT22;49973;52.084;5.412;2023-02-15T08:33:58;3.40;99.90
61912;DHT22;49973;52.084;5.412;2023-02-15T08:36:28;3.40;99.90
61912;DHT22;49973;52.084;5.412;2023-02-15T08:39:02;3.50;99.90
61912;DHT22;49973;52.084;5.412;2023-02-15T08:41:33;3.60;99.90
61912;DHT22;49973;52.084;5.412;2023-02-15T08:44:04;3.60;99.90
61912;DHT22;49973;52.084;5.412;2023-02-15T08:46:34;3.90;99.90
61912;DHT22;49973;52.084;5.412;2023-02-15T08:49:03;3.70;99.90
61912;DHT22;49973;52.084;5.412;2023-02-15T08:51:34;3.80;99.90
61912;DHT22;49973;52.084;5.412;2023-02-15T08:54:05;3.90;99.90
61912;DHT22;49973;52.084;5.412;2023-02-15T08:56:37;4.00;99.90
61912;DHT22;49973;52.084;5.412;2023-02-15T08:59:10;4.10;99.90
61912;DHT22;49973;52.084;5.412;2023-02-15T09:01:40;4.20;99.90
61912;DHT22;49973;52.084;5.412;2023-02-15T09:04:08;4.30;99.90
61912;DHT22;49973;52.084;5.412;2023-02-15T09:06:38;4.40;99.90
61912;DHT22;49973;52.084;5.412;2023-02-15T09:09:09;4.50;99.90
61912;DHT22;49973;52.084;5.412;2023-02-15T09:11:40;4.70;99.90
61912;DHT22;49973;52.084;5.412;2023-02-15T09:14:11;4.70;99.90
61912;DHT22;49973;52.084;5.412;2023-02-15T09:16:42;4.80;99.90
61912;DHT22;49973;52.084;5.412;2023-02-15T09:19:12;4.90;99.90
61912;DHT22;49973;52.084;5.412;2023-02-15T09:21:41;4.90;99.90
61912;DHT22;49973;52.084;5.412;2023-02-15T09:24:12;5.00;99.90
61912;DHT22;49973;52.084;5.412;2023-02-15T09:26:42;5.00;99.90
61912;DHT22;49973;52.084;5.412;2023-02-15T09:29:13;5.10;99.90
61912;DHT22;49973;52.084;5.412;2023-02-15T09:31:43;5.20;99.90
61912;DHT22;49973;52.084;5.412;2023-02-15T09:34:13;5.20;99.90
61912;DHT22;49973;52.084;5.412;2023-02-15T09:36:43;5.30;99.90
61912;DHT22;49973;52.084;5.412;2023-02-15T09:39:15;5.40;99.90
61912;DHT22;49973;52.084;5.412;2023-02-15T09:45:01;5.50;99.90
61912;DHT22;49973;52.084;5.412;2023-02-15T09:50:40;5.70;99.90
61912;DHT22;49973;52.084;5.412;2023-02-15T09:53:31;5.80;99.90
61912;DHT22;49973;52.084;5.412;2023-02-15T09:56:09;5.80;99.90
61912;DHT22;49973;52.084;5.412;2023-02-15T09:58:46;5.90;99.90
61912;DHT22;49973;52.084;5.412;2023-02-15T10:01:25;6.00;99.90
61912;DHT22;49973;52.084;5.412;2023-02-15T10:06:56;6.10;99.90
61912;DHT22;49973;52.084;5.412;2023-02-15T10:09:39;6.20;99.90
61912;DHT22;49973;52.084;5.412;2023-02-15T10:12:39;6.30;99.90
61912;DHT22;49973;52.084;5.412;2023-02-15T10:15:19;6.30;99.90
61912;DHT22;49973;52.084;5.412;2023-02-15T10:18:10;6.40;99.90
61912;DHT22;49973;52.084;5.412;2023-02-15T10:20:52;6.50;99.90
61912;DHT22;49973;52.084;5.412;2023-02-15T10:23:37;6.60;99.90
61912;DHT22;49973;52.084;5.412;2023-02-15T10:26:12;6.60;99.90
61912;DHT22;49973;52.084;5.412;2023-02-15T10:28:46;6.80;99.90
61912;DHT22;49973;52.084;5.412;2023-02-15T10:31:23;6.80;99.90
61912;DHT22;49973;52.084;5.412;2023-02-15T10:34:04;6.80;99.90
61912;DHT22;49973;52.084;5.412;2023-02-15T10:36:52;7.00;99.90
61912;DHT22;49973;52.084;5.412;2023-02-15T10:39:26;7.00;99.90
61912;DHT22;49973;52.084;5.412;2023-02-15T10:42:04;7.10;99.90
61912;DHT22;49973;52.084;5.412;2023-02-15T10:44:45;7.10;99.90
61912;DHT22;49973;52.084;5.412;2023-02-15T10:47:27;7.20;99.90
61912;DHT22;49973;52.084;5.412;2023-02-15T10:50:17;7.30;99.90
61912;DHT22;49973;52.084;5.412;2023-02-15T10:52:59;7.40;99.90
61912;DHT22;49973;52.084;5.412;2023-02-15T10:55:42;7.50;99.90
61912;DHT22;49973;52.084;5.412;2023-02-15T10:58:18;7.50;99.90
61912;DHT22;49973;52.084;5.412;2023-02-15T11:00:53;7.60;99.90
61912;DHT22;49973;52.084;5.412;2023-02-15T11:03:36;7.70;99.90
61912;DHT22;49973;52.084;5.412;2023-02-15T11:06:12;7.90;99.90
61912;DHT22;49973;52.084;5.412;2023-02-15T11:08:45;7.90;99.90
61912;DHT22;49973;52.084;5.412;2023-02-15T11:11:23;8.10;99.90
61912;DHT22;49973;52.084;5.412;2023-02-15T11:13:57;8.20;99.90
61912;DHT22;49973;52.084;5.412;2023-02-15T11:16:31;8.30;99.90
61912;DHT22;49973;52.084;5.412;2023-02-15T11:19:04;8.40;99.90
61912;DHT22;49973;52.084;5.412;2023-02-15T11:21:36;8.60;99.90
61912;DHT22;49973;52.084;5.412;2023-02-15T11:24:10;8.70;99.90
61912;DHT22;49973;52.084;5.412;2023-02-15T11:26:42;8.90;99.90
61912;DHT22;49973;52.084;5.412;2023-02-15T11:29:16;9.10;99.90
61912;DHT22;49973;52.084;5.412;2023-02-15T11:31:51;9.20;99.90
61912;DHT22;49973;52.084;5.412;2023-02-15T11:34:26;9.40;99.90
61912;DHT22;49973;52.084;5.412;2023-02-15T11:36:59;9.50;99.90
61912;DHT22;49973;52.084;5.412;2023-02-15T11:39:29;9.70;99.90
61912;DHT22;49973;52.084;5.412;2023-02-15T11:42:03;9.80;99.90
61912;DHT22;49973;52.084;5.412;2023-02-15T11:44:36;10.00;99.90
61912;DHT22;49973;52.084;5.412;2023-02-15T11:47:10;10.20;99.90
61912;DHT22;49973;52.084;5.412;2023-02-15T11:49:39;10.30;99.90
61912;DHT22;49973;52.084;5.412;2023-02-15T11:52:13;10.40;99.90
61912;DHT22;49973;52.084;5.412;2023-02-15T11:54:45;10.50;99.90
61912;DHT22;49973;52.084;5.412;2023-02-15T11:57:17;10.50;99.90
61912;DHT22;49973;52.084;5.412;2023-02-15T11:59:51;10.50;99.90
61912;DHT22;49973;52.084;5.412;2023-02-15T12:02:23;10.50;99.90
61912;DHT22;49973;52.084;5.412;2023-02-15T12:04:56;10.60;99.90
61912;DHT22;49973;52.084;5.412;2023-02-15T12:07:30;10.60;99.90
61912;DHT22;49973;52.084;5.412;2023-02-15T12:10:03;10.60;99.90
61912;DHT22;49973;52.084;5.412;2023-02-15T12:12:35;10.70;99.90
61912;DHT22;49973;52.084;5.412;2023-02-15T12:15:06;10.70;99.90
61912;DHT22;49973;52.084;5.412;2023-02-15T12:17:39;10.70;99.90
61912;DHT22;49973;52.084;5.412;2023-02-15T12:20:21;10.80;99.90
61912;DHT22;49973;52.084;5.412;2023-02-15T12:22:54;10.90;99.90
61912;DHT22;49973;52.084;5.412;2023-02-15T12:25:33;11.00;99.90
61912;DHT22;49973;52.084;5.412;2023-02-15T12:28:05;11.10;99.90
61912;DHT22;49973;52.084;5.412;2023-02-15T12:30:44;11.20;99.90
61912;DHT22;49973;52.084;5.412;2023-02-15T12:33:19;11.30;99.90
61912;DHT22;49973;52.084;5.412;2023-02-15T12:35:56;11.40;99.90
61912;DHT22;49973;52.084;5.412;2023-02-15T12:38:27;11.50;99.90
61912;DHT22;49973;52.084;5.412;2023-02-15T12:40:58;11.60;99.90
61912;DHT22;49973;52.084;5.412;2023-02-15T12:43:32;11.70;99.90
61912;DHT22;49973;52.084;5.412;2023-02-15T12:46:24;11.70;99.90
61912;DHT22;49973;52.084;5.412;2023-02-15T12:49:14;11.70;99.90
61912;DHT22;49973;52.084;5.412;2023-02-15T12:51:48;11.70;99.90
61912;DHT22;49973;52.084;5.412;2023-02-15T12:54:37;11.70;99.90
61912;DHT22;49973;52.084;5.412;2023-02-15T12:57:23;11.70;99.90
61912;DHT22;49973;52.084;5.412;2023-02-15T12:59:55;11.60;99.90
61912;DHT22;49973;52.084;5.412;2023-02-15T13:02:26;11.60;99.90
61912;DHT22;49973;52.084;5.412;2023-02-15T13:05:05;11.60;99.90
61912;DHT22;49973;52.084;5.412;2023-02-15T13:07:37;11.50;99.90
61912;DHT22;49973;52.084;5.412;2023-02-15T13:10:20;11.60;99.90
61912;DHT22;49973;52.084;5.412;2023-02-15T13:12:49;11.60;99.90
61912;DHT22;49973;52.084;5.412;2023-02-15T13:15:28;11.60;99.90
61912;DHT22;49973;52.084;5.412;2023-02-15T13:17:59;11.60;99.90
61912;DHT22;49973;52.084;5.412;2023-02-15T13:20:32;11.60;99.90
61912;DHT22;49973;52.084;5.412;2023-02-15T13:23:06;11.80;99.90
61912;DHT22;49973;52.084;5.412;2023-02-15T13:25:43;11.80;99.90
61912;DHT22;49973;52.084;5.412;2023-02-15T13:28:19;11.90;99.90
61912;DHT22;49973;52.084;5.412;2023-02-15T13:30:51;12.00;99.90
61912;DHT22;49973;52.084;5.412;2023-02-15T13:33:24;12.10;99.90
61912;DHT22;49973;52.084;5.412;2023-02-15T13:36:02;12.20;99.90
61912;DHT22;49973;52.084;5.412;2023-02-15T13:38:49;12.30;99.90
61912;DHT22;49973;52.084;5.412;2023-02-15T13:41:25;12.30;99.90
61912;DHT22;49973;52.084;5.412;2023-02-15T13:44:03;12.40;99.90
61912;DHT22;49973;52.084;5.412;2023-02-15T13:46:52;12.40;99.90
61912;DHT22;49973;52.084;5.412;2023-02-15T13:49:38;12.40;99.90
61912;DHT22;49973;52.084;5.412;2023-02-15T13:52:18;12.50;99.90
61912;DHT22;49973;52.084;5.412;2023-02-15T13:55:15;12.50;99.90
61912;DHT22;49973;52.084;5.412;2023-02-15T13:58:13;12.70;99.90
61912;DHT22;49973;52.084;5.412;2023-02-15T14:00:48;12.60;99.90
61912;DHT22;49973;52.084;5.412;2023-02-15T14:09:26;12.60;99.90
61912;DHT22;49973;52.084;5.412;2023-02-15T14:12:11;12.60;99.90
61912;DHT22;49973;52.084;5.412;2023-02-15T14:14:59;12.60;99.90
61912;DHT22;49973;52.084;5.412;2023-02-15T14:17:40;12.60;99.90
61912;DHT22;49973;52.084;5.412;2023-02-15T14:20:19;12.60;99.90
61912;DHT22;49973;52.084;5.412;2023-02-15T14:22:54;12.60;99.90
61912;DHT22;49973;52.084;5.412;2023-02-15T14:25:34;12.60;99.90
61912;DHT22;49973;52.084;5.412;2023-02-15T14:28:08;12.60;99.90
61912;DHT22;49973;52.084;5.412;2023-02-15T14:30:40;12.60;99.90
61912;DHT22;49973;52.084;5.412;2023-02-15T14:33:30;12.60;99.90
61912;DHT22;49973;52.084;5.412;2023-02-15T14:36:04;12.60;99.90
61912;DHT22;49973;52.084;5.412;2023-02-15T14:38:44;12.60;99.90
61912;DHT22;49973;52.084;5.412;2023-02-15T14:41:20;12.60;99.90
61912;DHT22;49973;52.084;5.412;2023-02-15T14:43:59;12.60;99.90
61912;DHT22;49973;52.084;5.412;2023-02-15T14:46:36;12.70;99.90
61912;DHT22;49973;52.084;5.412;2023-02-15T14:49:11;12.60;99.90
61912;DHT22;49973;52.084;5.412;2023-02-15T14:52:03;12.50;99.90
61912;DHT22;49973;52.084;5.412;2023-02-15T14:54:58;12.50;99.90
61912;DHT22;49973;52.084;5.412;2023-02-15T14:57:33;12.50;99.90
61912;DHT22;49973;52.084;5.412;2023-02-15T15:00:35;12.50;99.90
61912;DHT22;49973;52.084;5.412;2023-02-15T15:03:11;12.40;99.90
61912;DHT22;49973;52.084;5.412;2023-02-15T15:05:51;12.30;99.90
61912;DHT22;49973;52.084;5.412;2023-02-15T15:08:28;12.30;99.90
61912;DHT22;49973;52.084;5.412;2023-02-15T15:10:57;12.20;99.90
61912;DHT22;49973;52.084;5.412;2023-02-15T15:14:13;12.20;99.90
61912;DHT22;49973;52.084;5.412;2023-02-15T15:17:00;12.10;99.90
61912;DHT22;49973;52.084;5.412;2023-02-15T15:19:57;12.00;99.90
61912;DHT22;49973;52.084;5.412;2023-02-15T15:22:27;11.90;99.90
61912;DHT22;49973;52.084;5.412;2023-02-15T15:24:57;11.90;99.90
61912;DHT22;49973;52.084;5.412;2023-02-15T15:27:47;11.80;99.90
61912;DHT22;49973;52.084;5.412;2023-02-15T15:36:54;11.70;99.90
61912;DHT22;49973;52.084;5.412;2023-02-15T15:39:55;11.60;99.90
61912;DHT22;49973;52.084;5.412;2023-02-15T15:42:32;11.50;99.90
61912;DHT22;49973;52.084;5.412;2023-02-15T15:45:34;11.50;99.90
61912;DHT22;49973;52.084;5.412;2023-02-15T15:48:21;11.40;99.90
61912;DHT22;49973;52.084;5.412;2023-02-15T15:50:57;11.30;99.90
61912;DHT22;49973;52.084;5.412;2023-02-15T15:53:29;11.30;99.90
61912;DHT22;49973;52.084;5.412;2023-02-15T15:56:03;11.20;99.90
61912;DHT22;49973;52.084;5.412;2023-02-15T15:58:34;11.10;99.90
61912;DHT22;49973;52.084;5.412;2023-02-15T16:01:06;11.10;99.90
61912;DHT22;49973;52.084;5.412;2023-02-15T16:03:35;11.00;99.90
61912;DHT22;49973;52.084;5.412;2023-02-15T16:06:06;10.90;99.90
61912;DHT22;49973;52.084;5.412;2023-02-15T16:08:39;10.90;99.90
61912;DHT22;49973;52.084;5.412;2023-02-15T16:11:10;10.80;99.90
61912;DHT22;49973;52.084;5.412;2023-02-15T16:13:41;10.80;99.90
61912;DHT22;49973;52.084;5.412;2023-02-15T16:16:12;10.70;99.90
61912;DHT22;49973;52.084;5.412;2023-02-15T16:18:41;10.70;99.90
61912;DHT22;49973;52.084;5.412;2023-02-15T16:21:18;10.60;99.90
61912;DHT22;49973;52.084;5.412;2023-02-15T16:24:12;10.50;99.90
61912;DHT22;49973;52.084;5.412;2023-02-15T16:27:01;10.40;99.90
61912;DHT22;49973;52.084;5.412;2023-02-15T16:29:34;10.40;99.90
61912;DHT22;49973;52.084;5.412;2023-02-15T16:32:04;10.30;99.90
61912;DHT22;49973;52.084;5.412;2023-02-15T16:34:33;10.20;99.90
61912;DHT22;49973;52.084;5.412;2023-02-15T16:37:16;10.10;99.90
61912;DHT22;49973;52.084;5.412;2023-02-15T16:39:46;10.00;99.90
61912;DHT22;49973;52.084;5.412;2023-02-15T16:42:18;9.90;99.90
61912;DHT22;49973;52.084;5.412;2023-02-15T16:44:50;9.80;99.90
61912;DHT22;49973;52.084;5.412;2023-02-15T16:47:23;9.70;99.90